馬祖北竿航空站 - ATIS

METAR RCMT 141100Z 04016KT 9999 FEW020 BKN050 16/10 Q1024 NOSIG RMK A3026(T)=

站台狀態:Online
最後更新:2019-12-14 23:00:01